Time;durP1;ratioP1;P1;durP2;ratioP2;P2;SDS_P1;SDS_P2;PMS_P1;PMS_P2;Temp;Humidity;BMP_temperature;BMP_pressure;BME280_temperature;BME280_humidity;BME280_pressure;Samples;Min_cycle;Max_cycle;Signal;HPM_P1;HPM_P2
2023/08/29 00:01:44;;;;;;;5.07;2.80;;;15.00;96.60;;;;;;5005023;28;20613;-78
2023/08/29 00:04:10;;;;;;;3.75;2.75;;;15.00;96.40;;;;;;4985675;28;20026;-78
2023/08/29 00:06:35;;;;;;;3.90;3.50;;;15.00;96.60;;;;;;5003149;28;20087;-78
2023/08/29 00:09:02;;;;;;;6.47;4.05;;;14.70;96.40;;;;;;4988536;28;20032;-78
2023/08/29 00:11:27;;;;;;;2.83;2.40;;;14.70;96.50;;;;;;4984875;28;20029;-78
2023/08/29 00:13:53;;;;;;;4.95;3.63;;;14.60;96.60;;;;;;4986885;28;20074;-78
2023/08/29 00:16:18;;;;;;;4.90;3.33;;;14.60;96.70;;;;;;4999753;28;20048;-78
2023/08/29 00:18:44;;;;;;;4.07;3.58;;;14.50;96.70;;;;;;4972079;28;20273;-78
2023/08/29 00:21:10;;;;;;;5.03;3.80;;;14.50;97.00;;;;;;4986102;28;20037;-79
2023/08/29 00:23:35;;;;;;;3.63;2.78;;;14.50;96.80;;;;;;4986398;28;20030;-78
2023/08/29 00:26:01;;;;;;;2.88;2.20;;;14.50;97.10;;;;;;4981287;28;20061;-78
2023/08/29 00:28:26;;;;;;;6.75;2.78;;;14.50;97.10;;;;;;4967099;28;20037;-79
2023/08/29 00:30:53;;;;;;;8.27;3.20;;;14.50;96.70;;;;;;4968207;28;20034;-77
2023/08/29 00:33:18;;;;;;;5.55;3.85;;;14.50;97.20;;;;;;4986231;28;20444;-78
2023/08/29 00:35:45;;;;;;;5.03;4.30;;;14.30;97.00;;;;;;4985534;28;20079;-78
2023/08/29 00:38:11;;;;;;;4.22;3.80;;;14.20;97.10;;;;;;4986219;28;20091;-78
2023/08/29 00:40:37;;;;;;;7.53;4.82;;;14.10;97.10;;;;;;4984925;28;20025;-78
2023/08/29 00:43:02;;;;;;;6.72;4.72;;;14.10;97.20;;;;;;4971815;28;21355;-78
2023/08/29 00:45:31;;;;;;;3.30;3.00;;;14.00;99.10;;;;;;4985687;28;20029;-79
2023/08/29 00:47:57;;;;;;;4.90;4.30;;;14.10;97.80;;;;;;4967542;28;20523;-78
2023/08/29 00:50:23;;;;;;;5.43;4.40;;;14.20;97.70;;;;;;4999952;28;20037;-78
2023/08/29 00:52:49;;;;;;;4.10;3.40;;;14.00;97.60;;;;;;4993573;28;20034;-78
2023/08/29 00:55:15;;;;;;;3.72;2.80;;;14.00;98.20;;;;;;4968117;28;20404;-77
2023/08/29 00:57:41;;;;;;;3.58;3.25;;;14.10;98.20;;;;;;4985498;28;20064;-79
2023/08/29 01:00:07;;;;;;;5.75;4.00;;;14.30;98.50;;;;;;4984556;28;20072;-78
2023/08/29 01:02:32;;;;;;;10.82;4.43;;;14.20;98.30;;;;;;4980407;28;20503;-78
2023/08/29 01:04:58;;;;;;;5.75;5.18;;;14.00;97.90;;;;;;4982542;28;20033;-77
2023/08/29 01:07:23;;;;;;;5.55;4.90;;;13.80;98.10;;;;;;4987291;28;20046;-78
2023/08/29 01:09:49;;;;;;;6.93;5.25;;;13.70;99.90;;;;;;4996559;28;20091;-78
2023/08/29 01:12:18;;;;;;;7.50;5.00;;;13.70;98.90;;;;;;4971056;28;20496;-78
2023/08/29 01:15:10;;;;;;;7.65;5.18;;;13.60;99.20;;;;;;4985321;28;20506;-78
2023/08/29 01:17:39;;;;;;;4.28;3.90;;;13.70;99.90;;;;;;5005608;28;20026;-78
2023/08/29 01:20:05;;;;;;;7.38;5.80;;;13.50;99.70;;;;;;4988133;28;20037;-79
2023/08/29 01:22:52;;;;;;;8.25;5.95;;;13.50;99.20;;;;;;4995885;28;20391;-78
2023/08/29 01:25:42;;;;;;;8.32;6.50;;;13.40;99.90;;;;;;5015631;28;20565;-78
2023/08/29 01:28:08;;;;;;;12.75;5.65;;;13.30;99.90;;;;;;4983470;28;20026;-78
2023/08/29 01:30:33;;;;;;;6.97;5.68;;;13.30;99.90;;;;;;4981497;28;20116;-78
2023/08/29 01:32:59;;;;;;;7.10;5.80;;;13.20;99.90;;;;;;4965160;28;20124;-78
2023/08/29 01:35:24;;;;;;;6.65;5.35;;;13.30;99.90;;;;;;4976293;28;20030;-78
2023/08/29 01:37:50;;;;;;;3.45;3.15;;;13.30;99.90;;;;;;4966068;28;20030;-78
2023/08/29 01:40:16;;;;;;;6.40;3.78;;;13.40;99.90;;;;;;5001929;28;20026;-79
2023/08/29 01:42:41;;;;;;;5.57;4.20;;;13.50;99.90;;;;;;4984082;28;20026;-78
2023/08/29 01:45:07;;;;;;;5.57;4.13;;;13.50;99.90;;;;;;4985284;28;20108;-78
2023/08/29 01:47:33;;;;;;;9.10;4.05;;;13.40;99.90;;;;;;4986142;28;20037;-78
2023/08/29 01:49:58;;;;;;;6.43;4.47;;;13.40;99.90;;;;;;5000233;28;20033;-78
2023/08/29 01:52:25;;;;;;;4.18;3.83;;;13.30;99.90;;;;;;4984393;28;20041;-78
2023/08/29 01:54:50;;;;;;;5.45;4.85;;;13.30;99.90;;;;;;4964928;28;20034;-78
2023/08/29 01:57:17;;;;;;;4.00;3.50;;;13.40;99.90;;;;;;4967912;28;20095;-78
2023/08/29 01:59:43;;;;;;;5.10;3.95;;;13.30;99.90;;;;;;4997640;28;20090;-79
2023/08/29 02:02:08;;;;;;;4.68;3.40;;;13.40;99.90;;;;;;4974143;28;20052;-78
2023/08/29 02:04:34;;;;;;;7.95;4.22;;;13.50;99.90;;;;;;4985228;28;20074;-78
2023/08/29 02:06:59;;;;;;;6.00;3.50;;;13.60;99.90;;;;;;5001208;28;20369;-78
2023/08/29 02:09:25;;;;;;;7.03;4.40;;;13.60;99.90;;;;;;4983067;28;20048;-78
2023/08/29 02:11:50;;;;;;;9.77;4.63;;;13.60;99.90;;;;;;4965011;28;20418;-78
2023/08/29 02:14:16;;;;;;;7.57;5.18;;;13.50;99.90;;;;;;4985977;28;20120;-78
2023/08/29 02:16:41;;;;;;;8.10;6.00;;;13.30;99.90;;;;;;5013018;28;20033;-78
2023/08/29 02:19:07;;;;;;;8.52;6.10;;;13.20;99.90;;;;;;4970831;28;20391;-78
2023/08/29 02:21:32;;;;;;;9.30;6.07;;;13.10;99.90;;;;;;4981061;28;20377;-78
2023/08/29 02:23:58;;;;;;;6.60;5.72;;;12.90;99.90;;;;;;5000156;28;20474;-78
2023/08/29 02:26:24;;;;;;;5.57;4.05;;;12.80;99.90;;;;;;4999923;28;20037;-78
2023/08/29 02:28:52;;;;;;;7.20;4.70;;;12.90;99.90;;;;;;4978617;28;20037;-78
2023/08/29 02:31:17;;;;;;;7.13;5.63;;;13.00;99.90;;;;;;4982830;28;20497;-79
2023/08/29 02:33:46;;;;;;;8.63;6.28;;;13.00;99.90;;;;;;4998871;28;20040;-79
2023/08/29 02:36:12;;;;;;;10.65;6.43;;;12.80;99.90;;;;;;4969197;28;20490;-78
2023/08/29 02:38:38;;;;;;;5.88;4.05;;;12.70;99.90;;;;;;4990258;28;20378;-78
2023/08/29 02:41:05;;;;;;;7.32;4.95;;;12.80;99.90;;;;;;4968808;28;20447;-78
2023/08/29 02:43:30;;;;;;;7.97;6.30;;;12.90;99.90;;;;;;5000665;28;20416;-79
2023/08/29 02:45:56;;;;;;;10.65;7.00;;;12.80;99.90;;;;;;4967833;28;20117;-78
2023/08/29 02:48:22;;;;;;;6.65;5.95;;;12.70;99.90;;;;;;4966960;28;20034;-78
2023/08/29 02:50:48;;;;;;;8.20;5.60;;;12.80;99.90;;;;;;4979336;28;20030;-78
2023/08/29 02:53:16;;;;;;;11.10;6.95;;;12.90;99.90;;;;;;4985649;28;20159;-78
2023/08/29 02:55:42;;;;;;;8.43;4.20;;;12.80;99.90;;;;;;4981208;28;20382;-78
2023/08/29 02:58:07;;;;;;;7.72;6.07;;;12.70;99.90;;;;;;4998128;28;20034;-79
2023/08/29 03:00:33;;;;;;;10.77;7.03;;;12.60;99.90;;;;;;4999529;28;20054;-78
2023/08/29 03:02:58;;;;;;;10.05;7.07;;;12.50;99.90;;;;;;4970380;28;20025;-78
2023/08/29 03:05:24;;;;;;;4.80;4.40;;;12.50;99.90;;;;;;4968066;28;20026;-77
2023/08/29 03:07:49;;;;;;;7.40;5.30;;;12.50;99.90;;;;;;4985741;28;20026;-79
2023/08/29 03:10:15;;;;;;;7.63;5.68;;;12.70;99.90;;;;;;4969497;28;20030;-77
2023/08/29 03:12:41;;;;;;;5.72;3.78;;;12.70;99.90;;;;;;5017481;28;20079;-78
2023/08/29 03:15:07;;;;;;;6.40;4.55;;;12.70;99.90;;;;;;4968358;28;20389;-78
2023/08/29 03:17:33;;;;;;;7.65;5.70;;;12.80;99.90;;;;;;4985625;28;20026;-78
2023/08/29 03:19:58;;;;;;;5.55;3.70;;;12.80;99.90;;;;;;4985207;28;20061;-78
2023/08/29 03:22:24;;;;;;;5.47;3.90;;;12.70;99.90;;;;;;4988812;28;20045;-78
2023/08/29 03:24:49;;;;;;;4.15;3.63;;;12.70;99.90;;;;;;5000259;28;20493;-78
2023/08/29 03:27:17;;;;;;;4.38;3.75;;;12.60;99.90;;;;;;4986785;28;20036;-78
2023/08/29 03:29:42;;;;;;;6.97;5.30;;;12.60;99.90;;;;;;4989638;28;20128;-77
2023/08/29 03:32:08;;;;;;;6.22;4.78;;;12.60;99.90;;;;;;4987013;28;20037;-77
2023/08/29 03:34:33;;;;;;;7.15;5.95;;;12.50;99.90;;;;;;5002227;28;20112;-78
2023/08/29 03:36:59;;;;;;;11.25;6.00;;;12.40;99.90;;;;;;4985268;28;20033;-78
2023/08/29 03:39:25;;;;;;;9.13;6.63;;;12.30;99.90;;;;;;5004051;28;20041;-78
2023/08/29 03:41:50;;;;;;;5.88;4.72;;;12.20;99.90;;;;;;4996832;28;20192;-78
2023/08/29 03:44:16;;;;;;;7.15;4.15;;;12.20;99.90;;;;;;4983168;28;20116;-78
2023/08/29 03:46:41;;;;;;;6.57;5.70;;;12.30;99.90;;;;;;4989018;28;20061;-77
2023/08/29 03:49:07;;;;;;;6.10;4.50;;;12.30;99.90;;;;;;4972400;28;20116;-77
2023/08/29 03:51:32;;;;;;;7.32;4.15;;;12.30;99.90;;;;;;4983677;28;20034;-78
2023/08/29 03:53:58;;;;;;;6.20;4.18;;;12.40;99.90;;;;;;4988000;28;20515;-77
2023/08/29 03:56:24;;;;;;;4.88;4.38;;;12.60;99.90;;;;;;5001295;28;20394;-77
2023/08/29 03:58:49;;;;;;;7.03;5.55;;;12.70;99.90;;;;;;4982854;28;20848;-79
2023/08/29 04:01:19;;;;;;;6.95;4.47;;;12.50;99.90;;;;;;4985277;28;20397;-78
2023/08/29 04:03:44;;;;;;;9.30;5.88;;;12.40;99.90;;;;;;4985252;28;20633;-78
2023/08/29 04:06:10;;;;;;;4.60;4.20;;;12.30;99.90;;;;;;4985263;28;20101;-78
2023/08/29 04:08:35;;;;;;;4.47;3.72;;;12.30;99.90;;;;;;5002717;28;20136;-77
2023/08/29 04:11:03;;;;;;;5.40;4.50;;;12.30;99.90;;;;;;4970995;28;20116;-77
2023/08/29 04:13:28;;;;;;;7.50;6.43;;;12.30;99.90;;;;;;4987939;28;20040;-77
2023/08/29 04:15:54;;;;;;;9.60;7.60;;;12.30;99.90;;;;;;4971415;28;20359;-77
2023/08/29 04:18:20;;;;;;;6.63;5.07;;;12.30;99.90;;;;;;4985946;28;20678;-77
2023/08/29 04:20:46;;;;;;;9.60;7.07;;;12.30;99.90;;;;;;4988365;28;20037;-78
2023/08/29 04:23:12;;;;;;;6.07;4.40;;;12.30;99.90;;;;;;4982215;28;20030;-77
2023/08/29 04:25:37;;;;;;;6.82;5.35;;;12.40;99.90;;;;;;4984501;28;20034;-78
2023/08/29 04:28:03;;;;;;;5.85;4.45;;;12.40;99.90;;;;;;5003858;28;20044;-77
2023/08/29 04:30:29;;;;;;;5.40;4.85;;;12.50;99.90;;;;;;4985030;28;20038;-78
2023/08/29 04:32:55;;;;;;;8.98;7.68;;;12.40;99.90;;;;;;4987486;28;20044;-78
2023/08/29 04:35:21;;;;;;;5.50;4.43;;;12.20;99.90;;;;;;4972082;28;20409;-78
2023/08/29 04:37:47;;;;;;;8.15;5.95;;;12.30;99.90;;;;;;4987838;28;20029;-77
2023/08/29 04:40:12;;;;;;;8.15;4.55;;;12.30;99.90;;;;;;4998594;28;20026;-78
2023/08/29 04:42:40;;;;;;;7.57;6.50;;;12.20;99.90;;;;;;4968586;28;20037;-78
2023/08/29 04:45:06;;;;;;;4.93;4.00;;;12.20;99.90;;;;;;5017900;28;20108;-77
2023/08/29 04:47:32;;;;;;;9.50;5.47;;;12.40;99.90;;;;;;4996593;28;20121;-78
2023/08/29 04:49:58;;;;;;;8.05;7.25;;;12.50;99.90;;;;;;4983443;28;20109;-77
2023/08/29 04:52:24;;;;;;;9.40;6.85;;;12.40;99.90;;;;;;4984453;28;20037;-78
2023/08/29 04:54:50;;;;;;;7.05;5.85;;;12.20;99.90;;;;;;4983086;28;20030;-77
2023/08/29 04:57:15;;;;;;;4.65;4.25;;;12.20;99.90;;;;;;5014540;28;20501;-77
2023/08/29 04:59:41;;;;;;;4.28;3.30;;;12.30;99.90;;;;;;4970049;28;20042;-78
2023/08/29 05:02:08;;;;;;;4.57;4.05;;;12.20;99.90;;;;;;4986256;28;20116;-77
2023/08/29 05:04:33;;;;;;;10.77;7.43;;;12.30;99.90;;;;;;4998271;28;20044;-77
2023/08/29 05:06:59;;;;;;;4.65;4.25;;;12.30;99.90;;;;;;4983320;28;20037;-78
2023/08/29 05:09:25;;;;;;;6.75;6.15;;;12.30;99.90;;;;;;4983332;28;20040;-78
2023/08/29 05:11:52;;;;;;;6.43;4.72;;;12.30;99.90;;;;;;4984509;28;20038;-78
2023/08/29 05:14:18;;;;;;;8.50;7.43;;;12.40;99.90;;;;;;4981758;28;20044;-78
2023/08/29 05:16:43;;;;;;;6.53;5.35;;;12.40;99.90;;;;;;4987509;28;20025;-78
2023/08/29 05:19:09;;;;;;;4.45;4.05;;;12.30;99.90;;;;;;4985623;28;20121;-78
2023/08/29 05:21:34;;;;;;;5.07;4.57;;;12.30;99.90;;;;;;4982655;28;20078;-78
2023/08/29 05:24:01;;;;;;;7.60;4.70;;;12.30;99.90;;;;;;4986049;28;20049;-78
2023/08/29 05:26:26;;;;;;;6.05;5.45;;;12.40;99.90;;;;;;4968450;28;20587;-77
2023/08/29 05:28:52;;;;;;;8.63;7.45;;;12.40;99.90;;;;;;5002804;28;20061;-78
2023/08/29 05:31:18;;;;;;;7.80;6.63;;;12.40;99.90;;;;;;4990094;28;20037;-78
2023/08/29 05:33:43;;;;;;;10.07;8.38;;;12.40;99.90;;;;;;4985261;28;20405;-78
2023/08/29 05:36:09;;;;;;;6.18;4.05;;;12.50;99.90;;;;;;4969149;28;20039;-77
2023/08/29 05:38:34;;;;;;;5.80;5.20;;;12.40;99.90;;;;;;4985069;28;20498;-78
2023/08/29 05:41:00;;;;;;;5.60;4.97;;;12.60;99.90;;;;;;4971400;28;20049;-78
2023/08/29 05:43:26;;;;;;;4.75;4.20;;;12.70;99.90;;;;;;4983018;28;20147;-78
2023/08/29 05:45:54;;;;;;;7.25;6.55;;;12.60;99.90;;;;;;4992276;28;20121;-78
2023/08/29 05:48:19;;;;;;;9.60;7.82;;;12.70;99.90;;;;;;4970913;28;20026;-78
2023/08/29 05:50:47;;;;;;;7.22;6.25;;;12.70;99.90;;;;;;5002257;28;20088;-77
2023/08/29 05:53:13;;;;;;;11.90;9.25;;;12.70;99.90;;;;;;4986509;28;20043;-77
2023/08/29 05:55:38;;;;;;;14.13;9.70;;;12.70;99.90;;;;;;4966965;28;20038;-78
2023/08/29 05:58:04;;;;;;;11.43;8.10;;;12.80;99.90;;;;;;4998686;28;20036;-78
2023/08/29 06:00:29;;;;;;;16.35;10.27;;;12.70;99.90;;;;;;4969297;28;20036;-77
2023/08/29 06:02:55;;;;;;;7.97;5.07;;;12.80;99.90;;;;;;4988473;28;20113;-77
2023/08/29 06:05:21;;;;;;;11.32;8.80;;;13.00;99.90;;;;;;4984385;28;20052;-77
2023/08/29 06:07:46;;;;;;;5.25;4.40;;;13.10;99.90;;;;;;4985174;28;20022;-78
2023/08/29 06:10:12;;;;;;;4.07;3.67;;;13.20;99.90;;;;;;4996124;28;20022;-77
2023/08/29 06:12:38;;;;;;;7.82;6.60;;;13.30;99.90;;;;;;4998879;28;20056;-77
2023/08/29 06:15:03;;;;;;;10.00;8.38;;;13.40;99.90;;;;;;4986453;28;20030;-78
2023/08/29 06:17:30;;;;;;;11.05;9.00;;;13.30;99.90;;;;;;4983733;28;20033;-78
2023/08/29 06:19:55;;;;;;;10.65;9.52;;;13.30;99.90;;;;;;4980737;28;20541;-78
2023/08/29 06:22:21;;;;;;;8.02;5.07;;;13.40;99.90;;;;;;5001656;28;20116;-78
2023/08/29 06:24:46;;;;;;;4.75;3.53;;;13.40;99.90;;;;;;4996119;28;20102;-78
2023/08/29 06:27:12;;;;;;;4.40;3.75;;;13.60;99.90;;;;;;4984504;28;20507;-78
2023/08/29 06:29:37;;;;;;;8.25;4.78;;;13.70;99.90;;;;;;4998144;28;20494;-78
2023/08/29 06:32:03;;;;;;;6.25;5.65;;;13.80;99.90;;;;;;4976428;28;20454;-77
2023/08/29 06:34:28;;;;;;;7.90;4.88;;;13.80;99.90;;;;;;4982574;28;20473;-78
2023/08/29 06:36:54;;;;;;;4.20;3.80;;;13.90;99.90;;;;;;4984115;28;20397;-78
2023/08/29 06:39:20;;;;;;;9.88;5.65;;;14.00;99.90;;;;;;5004415;28;20048;-79
2023/08/29 06:41:46;;;;;;;5.43;4.72;;;14.00;99.90;;;;;;4969671;28;20045;-78
2023/08/29 06:44:11;;;;;;;5.57;4.40;;;14.10;99.90;;;;;;4977486;28;20134;-77
2023/08/29 06:46:37;;;;;;;9.23;7.85;;;14.10;99.90;;;;;;4989405;28;20477;-77
2023/08/29 06:49:05;;;;;;;7.00;5.00;;;14.20;99.90;;;;;;4998514;28;20036;-78
2023/08/29 06:51:31;;;;;;;8.13;6.22;;;14.20;99.90;;;;;;4984829;28;20145;-78
2023/08/29 06:53:57;;;;;;;9.05;5.95;;;14.30;99.90;;;;;;5001293;28;20534;-78
2023/08/29 06:56:23;;;;;;;8.18;5.93;;;14.40;99.90;;;;;;4973498;28;20065;-78
2023/08/29 06:58:49;;;;;;;10.45;7.63;;;14.40;99.90;;;;;;4975466;28;20052;-78
2023/08/29 07:01:17;;;;;;;10.25;8.38;;;14.50;99.90;;;;;;4972692;28;20041;-78
2023/08/29 07:03:43;;;;;;;15.55;10.70;;;14.60;99.90;;;;;;4991223;28;20100;-78
2023/08/29 07:06:08;;;;;;;10.10;8.52;;;14.70;99.90;;;;;;4998809;28;20026;-78
2023/08/29 07:08:34;;;;;;;15.98;12.02;;;14.80;99.90;;;;;;4990880;28;20025;-79
2023/08/29 07:10:59;;;;;;;17.35;12.40;;;14.90;99.90;;;;;;4999316;28;20371;-78
2023/08/29 07:13:25;;;;;;;17.80;14.73;;;14.90;99.90;;;;;;4988373;28;20112;-77
2023/08/29 07:15:50;;;;;;;16.20;11.73;;;15.10;99.90;;;;;;5004437;28;20030;-78
2023/08/29 07:18:16;;;;;;;15.52;12.13;;;15.20;99.90;;;;;;5013834;28;20498;-78
2023/08/29 07:20:42;;;;;;;13.52;8.63;;;15.30;99.90;;;;;;4972078;28;20044;-78
2023/08/29 07:23:07;;;;;;;4.53;4.05;;;15.30;99.90;;;;;;4998011;28;20113;-77
2023/08/29 07:25:41;;;;;;;7.25;5.40;;;15.50;99.90;;;;;;4987882;28;20371;-77
2023/08/29 07:28:08;;;;;;;10.57;6.55;;;15.60;99.90;;;;;;4980008;28;20068;-78
2023/08/29 07:30:34;;;;;;;7.30;5.38;;;15.80;99.90;;;;;;4986263;28;20681;-78
2023/08/29 07:32:59;;;;;;;7.53;4.18;;;15.90;99.90;;;;;;4970649;28;20021;-79
2023/08/29 07:35:25;;;;;;;11.57;10.38;;;16.00;99.90;;;;;;4969983;28;20846;-78
2023/08/29 07:37:51;;;;;;;14.32;11.85;;;16.10;99.90;;;;;;4988652;28;21015;-78
2023/08/29 07:40:17;;;;;;;14.68;10.05;;;16.30;99.90;;;;;;5001594;28;20038;-78
2023/08/29 07:42:43;;;;;;;7.63;6.60;;;16.40;99.90;;;;;;5003149;28;20056;-78
2023/08/29 07:45:09;;;;;;;18.13;12.43;;;16.50;99.90;;;;;;4999721;28;20081;-77
2023/08/29 07:47:35;;;;;;;17.92;12.73;;;16.60;99.90;;;;;;4968279;28;20069;-77
2023/08/29 07:50:00;;;;;;;9.57;7.82;;;16.80;99.90;;;;;;4973238;28;20486;-77
2023/08/29 07:52:26;;;;;;;15.30;10.55;;;16.80;99.90;;;;;;4988395;28;20382;-78
2023/08/29 07:54:52;;;;;;;12.75;9.07;;;17.00;99.90;;;;;;4987450;28;20489;-77
2023/08/29 07:57:17;;;;;;;12.45;8.57;;;17.20;99.90;;;;;;5001705;28;20524;-78
2023/08/29 07:59:43;;;;;;;15.68;11.45;;;17.40;99.90;;;;;;4970555;28;20405;-78
2023/08/29 08:02:08;;;;;;;16.88;12.15;;;17.50;99.90;;;;;;5004789;28;20029;-78
2023/08/29 08:04:34;;;;;;;17.58;11.32;;;17.80;99.90;;;;;;4995964;28;20521;-78
2023/08/29 08:07:00;;;;;;;15.63;12.25;;;18.00;99.90;;;;;;4988513;28;20116;-77
2023/08/29 08:09:26;;;;;;;23.92;13.07;;;18.20;99.90;;;;;;5004737;28;20029;-77
2023/08/29 08:11:52;;;;;;;17.95;12.00;;;18.30;99.90;;;;;;4947851;28;20502;-77
2023/08/29 08:14:17;;;;;;;16.58;11.95;;;18.40;99.90;;;;;;4999110;28;20105;-76
2023/08/29 08:16:44;;;;;;;16.65;11.98;;;18.50;99.90;;;;;;4984437;28;20385;-77
2023/08/29 08:19:10;;;;;;;17.42;11.60;;;18.70;99.90;;;;;;4997696;28;20065;-78
2023/08/29 08:21:35;;;;;;;14.77;10.45;;;18.80;99.90;;;;;;5003601;28;20064;-78
2023/08/29 08:24:01;;;;;;;13.93;10.18;;;18.80;99.90;;;;;;4985037;28;20030;-77
2023/08/29 08:26:27;;;;;;;15.93;11.00;;;18.90;99.90;;;;;;4970817;28;20052;-78
2023/08/29 08:28:54;;;;;;;13.95;8.52;;;19.10;99.90;;;;;;4999398;28;20048;-78
2023/08/29 08:31:20;;;;;;;12.48;10.13;;;19.20;99.90;;;;;;4985541;28;20064;-77
2023/08/29 08:33:45;;;;;;;9.00;6.63;;;19.30;99.90;;;;;;4969156;28;20128;-78
2023/08/29 08:36:11;;;;;;;10.00;8.65;;;19.40;99.90;;;;;;4985267;28;20556;-78
2023/08/29 08:38:36;;;;;;;15.93;11.65;;;19.50;99.90;;;;;;4985212;28;20029;-79
2023/08/29 08:41:03;;;;;;;13.65;10.45;;;19.70;99.90;;;;;;4975895;28;20589;-78
2023/08/29 08:43:29;;;;;;;11.25;7.35;;;19.70;99.90;;;;;;4999335;28;20037;-78
2023/08/29 08:45:55;;;;;;;13.07;9.23;;;19.90;99.90;;;;;;4987273;28;20090;-78
2023/08/29 08:48:20;;;;;;;6.22;5.43;;;19.90;99.90;;;;;;4972877;28;20120;-78
2023/08/29 08:50:47;;;;;;;13.48;8.73;;;19.90;99.90;;;;;;4987803;28;20100;-78
2023/08/29 08:53:12;;;;;;;11.57;9.05;;;20.00;99.90;;;;;;4967740;28;20087;-78
2023/08/29 08:55:38;;;;;;;15.10;8.93;;;20.20;99.90;;;;;;4984021;28;20029;-78
2023/08/29 08:58:04;;;;;;;7.43;5.88;;;20.30;99.90;;;;;;4984641;28;20033;-78
2023/08/29 09:00:29;;;;;;;13.50;8.07;;;20.50;99.90;;;;;;4982258;28;21089;-78
2023/08/29 09:02:55;;;;;;;9.57;7.80;;;20.50;99.90;;;;;;4984302;28;20097;-79
2023/08/29 09:05:21;;;;;;;14.52;7.93;;;20.70;99.90;;;;;;4984039;28;20038;-79
2023/08/29 09:07:46;;;;;;;13.98;7.63;;;20.80;99.90;;;;;;4985727;28;20489;-79
2023/08/29 09:10:15;;;;;;;10.55;5.80;;;21.00;99.90;;;;;;4985954;28;20041;-78
2023/08/29 09:12:50;;;;;;;14.65;6.90;;;21.00;99.90;;;;;;4986573;28;20104;-79
2023/08/29 09:15:19;;;;;;;10.30;7.20;;;21.20;99.90;;;;;;4985360;28;20021;-79
2023/08/29 09:17:48;;;;;;;10.30;6.95;;;21.30;99.90;;;;;;4969805;28;20040;-79
2023/08/29 09:20:14;;;;;;;9.63;6.78;;;21.50;99.90;;;;;;5004820;28;20501;-79
2023/08/29 09:22:42;;;;;;;9.07;7.38;;;21.60;99.90;;;;;;4984611;28;20114;-79
2023/08/29 09:25:08;;;;;;;8.98;5.95;;;21.70;99.90;;;;;;5001391;28;20030;-79
2023/08/29 09:27:47;;;;;;;6.93;5.97;;;21.80;99.90;;;;;;4987388;28;20037;-79
2023/08/29 09:30:16;;;;;;;7.03;4.43;;;21.90;99.90;;;;;;4968112;28;20120;-78
2023/08/29 09:32:51;;;;;;;12.13;5.57;;;22.10;99.90;;;;;;4984230;28;20072;-78
2023/08/29 09:35:19;;;;;;;8.85;6.40;;;22.20;99.90;;;;;;4971891;28;20026;-78
2023/08/29 09:37:51;;;;;;;11.35;6.32;;;22.40;99.90;;;;;;4986286;28;20044;-78
2023/08/29 09:40:19;;;;;;;9.43;4.38;;;22.60;99.90;;;;;;4983761;28;20490;-78
2023/08/29 09:43:03;;;;;;;9.77;5.88;;;22.70;99.90;;;;;;4990497;28;20038;-78
2023/08/29 09:45:30;;;;;;;10.32;5.20;;;23.00;99.90;;;;;;4986995;28;20371;-78
2023/08/29 09:48:04;;;;;;;6.43;5.68;;;23.10;99.90;;;;;;4987340;28;20084;-78
2023/08/29 09:50:30;;;;;;;8.00;5.20;;;23.30;99.90;;;;;;4996900;28;20021;-78
2023/08/29 09:52:56;;;;;;;6.53;4.55;;;23.50;99.90;;;;;;5003000;28;20041;-78
2023/08/29 09:55:22;;;;;;;10.75;4.85;;;23.60;99.90;;;;;;4984187;28;20034;-77
2023/08/29 09:57:52;;;;;;;7.10;3.60;;;23.70;99.90;;;;;;4986440;28;20025;-78
2023/08/29 10:00:21;;;;;;;4.13;3.30;;;23.80;99.90;;;;;;4969281;28;20039;-78
2023/08/29 10:02:47;;;;;;;8.82;4.40;;;23.90;99.90;;;;;;5001393;28;20460;-80
2023/08/29 10:05:13;;;;;;;4.95;3.50;;;24.10;98.70;;;;;;4999174;28;20053;-78
2023/08/29 10:07:45;;;;;;;5.28;3.20;;;24.20;99.10;;;;;;4980084;28;20128;-78
2023/08/29 10:10:10;;;;;;;7.68;2.83;;;24.30;98.80;;;;;;4996447;28;20462;-78
2023/08/29 10:12:36;;;;;;;6.97;3.20;;;24.50;98.70;;;;;;4993682;28;20064;-79
2023/08/29 10:15:04;;;;;;;8.57;2.28;;;24.50;97.70;;;;;;4997062;28;20054;-79
2023/08/29 10:17:30;;;;;;;6.70;2.70;;;24.70;98.30;;;;;;4969501;28;20041;-79
2023/08/29 10:19:56;;;;;;;6.45;3.05;;;24.90;97.10;;;;;;4961208;28;20053;-79
2023/08/29 10:22:24;;;;;;;5.72;3.85;;;25.00;96.80;;;;;;4992375;28;20519;-79
2023/08/29 10:24:52;;;;;;;5.68;2.88;;;25.30;96.10;;;;;;4982810;28;20049;-79
2023/08/29 10:27:18;;;;;;;5.88;2.97;;;25.50;95.90;;;;;;5005527;28;20029;-79
2023/08/29 10:29:43;;;;;;;7.10;2.50;;;25.40;96.00;;;;;;4989335;28;20064;-79
2023/08/29 10:32:09;;;;;;;5.60;2.65;;;25.60;94.60;;;;;;4972727;28;20482;-80
2023/08/29 10:34:35;;;;;;;6.85;2.00;;;25.70;95.00;;;;;;4982446;28;20032;-79
2023/08/29 10:37:02;;;;;;;6.10;2.42;;;26.10;94.10;;;;;;4966798;28;20123;-80
2023/08/29 10:39:29;;;;;;;4.53;1.88;;;26.30;92.00;;;;;;4998650;28;20410;-79
2023/08/29 10:41:55;;;;;;;2.88;1.45;;;26.20;93.70;;;;;;4967181;28;20034;-79
2023/08/29 10:44:24;;;;;;;2.20;1.67;;;26.30;94.30;;;;;;4987144;28;20085;-79
2023/08/29 10:46:52;;;;;;;3.40;2.10;;;26.40;93.20;;;;;;5019167;28;20512;-80
2023/08/29 10:49:20;;;;;;;3.78;2.10;;;26.60;91.60;;;;;;4985441;28;20396;-80
2023/08/29 10:52:06;;;;;;;5.38;2.25;;;26.60;91.20;;;;;;5001024;28;20045;-80
2023/08/29 10:54:31;;;;;;;2.70;1.97;;;26.60;91.10;;;;;;4984693;28;20029;-80
2023/08/29 10:56:57;;;;;;;2.88;2.42;;;26.80;90.40;;;;;;4983898;28;20056;-80
2023/08/29 10:59:37;;;;;;;3.83;1.80;;;26.90;90.60;;;;;;4973651;28;20068;-79
2023/08/29 11:02:25;;;;;;;6.13;1.80;;;27.00;90.80;;;;;;5006557;28;20040;-78
2023/08/29 11:05:08;;;;;;;4.68;2.90;;;27.00;90.10;;;;;;5001288;28;20133;-78
2023/08/29 11:07:38;;;;;;;5.65;2.97;;;27.10;89.20;;;;;;4980690;28;20513;-79
2023/08/29 11:10:20;;;;;;;6.15;3.22;;;26.90;89.40;;;;;;5004319;28;20033;-79
2023/08/29 11:13:06;;;;;;;4.53;3.15;;;27.00;89.50;;;;;;4986639;28;20037;-79
2023/08/29 11:15:50;;;;;;;4.47;2.53;;;27.00;87.70;;;;;;4980797;28;20038;-79
2023/08/29 11:18:21;;;;;;;6.40;2.20;;;27.10;87.70;;;;;;5005838;28;20497;-79
2023/08/29 11:20:46;;;;;;;3.45;2.10;;;27.10;87.70;;;;;;5021581;28;20450;-79
2023/08/29 11:23:13;;;;;;;3.63;2.80;;;27.20;85.80;;;;;;4998227;28;20030;-79
2023/08/29 11:25:38;;;;;;;2.35;1.73;;;27.30;86.30;;;;;;4983461;28;20160;-80
2023/08/29 11:28:05;;;;;;;5.38;2.50;;;27.30;85.70;;;;;;4990003;28;20125;-80
2023/08/29 11:30:30;;;;;;;4.93;2.45;;;27.40;85.90;;;;;;4998537;28;20091;-80
2023/08/29 11:32:56;;;;;;;4.50;2.78;;;27.40;83.90;;;;;;4988505;28;20622;-80
2023/08/29 11:35:22;;;;;;;2.10;1.73;;;27.50;84.00;;;;;;5003352;28;20401;-79
2023/08/29 11:37:48;;;;;;;2.33;1.90;;;27.40;83.80;;;;;;4999329;28;20367;-79
2023/08/29 11:40:18;;;;;;;2.60;1.70;;;27.50;85.40;;;;;;4985976;28;20038;-80
2023/08/29 11:42:43;;;;;;;4.10;1.60;;;27.50;84.50;;;;;;4984806;28;20041;-79
2023/08/29 11:45:09;;;;;;;3.58;1.50;;;27.60;80.20;;;;;;4970803;28;20029;-80
2023/08/29 11:47:35;;;;;;;1.77;1.30;;;27.50;82.30;;;;;;4981463;28;20121;-80
2023/08/29 11:50:04;;;;;;;1.65;1.00;;;27.30;82.70;;;;;;4971473;28;20521;-80
2023/08/29 11:52:30;;;;;;;2.83;1.40;;;27.30;82.40;;;;;;4987970;28;21165;-80
2023/08/29 11:54:56;;;;;;;3.92;1.45;;;27.30;83.30;;;;;;5000369;28;20532;-80
2023/08/29 11:57:22;;;;;;;3.95;1.50;;;27.30;81.50;;;;;;4999369;28;20521;-80
2023/08/29 11:59:57;;;;;;;3.85;1.50;;;27.30;82.70;;;;;;4984836;28;20076;-80
2023/08/29 12:02:22;;;;;;;2.90;1.30;;;27.30;82.50;;;;;;5001791;28;20072;-81
2023/08/29 12:04:52;;;;;;;1.02;0.90;;;27.30;81.50;;;;;;4971667;28;20057;-80
2023/08/29 12:07:18;;;;;;;1.77;0.90;;;27.10;83.30;;;;;;4970913;28;20045;-80
2023/08/29 12:09:45;;;;;;;1.23;0.80;;;27.10;85.20;;;;;;5007031;28;20117;-81
2023/08/29 12:12:30;;;;;;;2.03;0.90;;;27.00;83.50;;;;;;5002836;28;20401;-81
2023/08/29 12:14:55;;;;;;;2.00;0.82;;;27.00;80.80;;;;;;4984344;28;20041;-81
2023/08/29 12:17:21;;;;;;;2.22;0.80;;;27.00;82.30;;;;;;4986590;28;20026;-80
2023/08/29 12:19:47;;;;;;;1.85;0.70;;;27.00;81.80;;;;;;5000935;28;20034;-81
2023/08/29 12:22:12;;;;;;;4.05;0.90;;;27.00;80.20;;;;;;4999464;28;20498;-82
2023/08/29 12:24:39;;;;;;;2.42;0.90;;;27.10;79.00;;;;;;5000830;28;20033;-82
2023/08/29 12:27:06;;;;;;;0.90;0.80;;;27.10;80.70;;;;;;4973065;28;20560;-82
2023/08/29 12:29:31;;;;;;;4.72;1.10;;;27.20;81.70;;;;;;4968770;28;20390;-82
2023/08/29 12:31:57;;;;;;;5.47;1.55;;;27.20;80.70;;;;;;4984962;28;20034;-82
2023/08/29 12:34:23;;;;;;;1.25;0.80;;;27.20;80.70;;;;;;5005498;28;20033;-83
2023/08/29 12:36:49;;;;;;;1.10;0.77;;;27.30;79.80;;;;;;4989254;28;20033;-83
2023/08/29 12:39:14;;;;;;;0.57;0.57;;;27.30;82.30;;;;;;4969418;28;20117;-82
2023/08/29 12:41:40;;;;;;;1.63;0.70;;;27.30;81.40;;;;;;4985118;28;20631;-83